createdAt,value
2018-11-14T00:02:15.416Z,35.07
2018-11-14T00:04:51.082Z,35.63
2018-11-14T00:07:26.877Z,37.60
2018-11-14T00:10:02.870Z,33.60
2018-11-14T00:12:38.794Z,36.10
2018-11-14T00:15:17.066Z,34.10
2018-11-14T00:17:53.353Z,35.50
2018-11-14T00:20:29.245Z,34.30
2018-11-14T00:23:05.468Z,39.20
2018-11-14T00:25:41.563Z,39.13
2018-11-14T00:28:17.645Z,41.73
2018-11-14T00:30:53.902Z,43.73
2018-11-14T00:33:29.721Z,40.13
2018-11-14T00:36:06.130Z,36.20
2018-11-14T00:38:42.185Z,33.47
2018-11-14T00:41:18.079Z,34.83
2018-11-14T00:43:54.082Z,34.67
2018-11-14T00:46:29.992Z,35.33
2018-11-14T00:49:06.334Z,36.70
2018-11-14T00:51:42.164Z,35.17
2018-11-14T00:54:20.516Z,36.90
2018-11-14T00:56:56.477Z,38.97
2018-11-14T00:59:32.374Z,38.97
2018-11-14T01:02:08.217Z,40.07
2018-11-14T01:04:44.041Z,38.30
2018-11-14T01:07:19.987Z,39.97
2018-11-14T01:09:55.840Z,41.70
2018-11-14T01:12:31.934Z,43.73
2018-11-14T01:15:10.213Z,45.10
2018-11-14T01:17:46.010Z,41.77
2018-11-14T01:20:22.630Z,42.53
2018-11-14T01:22:58.404Z,45.20
2018-11-14T01:25:34.216Z,43.17
2018-11-14T01:28:10.108Z,39.90
2018-11-14T01:30:45.789Z,36.87
2018-11-14T01:33:21.736Z,42.23
2018-11-14T01:35:57.889Z,36.80
2018-11-14T01:38:33.590Z,37.87
2018-11-14T01:41:09.476Z,49.67
2018-11-14T01:43:45.560Z,42.83
2018-11-14T01:46:21.369Z,40.17
2018-11-14T01:48:57.114Z,39.90
2018-11-14T01:51:32.998Z,37.40
2018-11-14T01:54:08.934Z,35.90
2018-11-14T01:56:44.713Z,37.60
2018-11-14T01:59:20.567Z,38.57
2018-11-14T02:01:56.421Z,38.77
2018-11-14T02:04:32.297Z,40.03
2018-11-14T02:07:08.018Z,39.93
2018-11-14T02:09:43.811Z,39.23
2018-11-14T02:12:19.796Z,37.53
2018-11-14T02:14:55.709Z,39.27
2018-11-14T02:17:31.661Z,40.77
2018-11-14T02:20:08.637Z,38.10
2018-11-14T02:22:45.019Z,40.07
2018-11-14T02:25:20.862Z,48.77
2018-11-14T02:27:56.614Z,48.07
2018-11-14T02:30:32.678Z,48.77
2018-11-14T02:33:08.484Z,46.13
2018-11-14T02:35:44.334Z,48.00
2018-11-14T02:38:20.124Z,46.70
2018-11-14T02:40:55.992Z,46.50
2018-11-14T02:43:31.802Z,43.93
2018-11-14T02:46:07.677Z,45.63
2018-11-14T02:48:43.559Z,43.27
2018-11-14T02:51:28.844Z,43.80
2018-11-14T02:54:04.840Z,50.63
2018-11-14T02:56:40.781Z,98.17
2018-11-14T02:59:16.649Z,68.63
2018-11-14T03:01:52.554Z,57.37
2018-11-14T03:04:28.450Z,44.27
2018-11-14T03:07:04.169Z,49.47
2018-11-14T03:09:40.159Z,57.17
2018-11-14T03:12:19.002Z,58.33
2018-11-14T03:14:55.033Z,61.93
2018-11-14T03:17:31.008Z,57.30
2018-11-14T03:20:10.349Z,60.60
2018-11-14T03:22:46.134Z,57.67
2018-11-14T03:25:22.032Z,52.07
2018-11-14T03:27:57.841Z,50.30
2018-11-14T03:30:33.905Z,51.23
2018-11-14T03:33:09.791Z,51.33
2018-11-14T03:35:50.638Z,52.77
2018-11-14T03:38:26.485Z,49.30
2018-11-14T03:41:02.240Z,45.93
2018-11-14T03:43:38.075Z,56.40
2018-11-14T03:46:14.633Z,53.67
2018-11-14T03:48:50.418Z,49.53
2018-11-14T03:51:26.157Z,47.60
2018-11-14T03:54:02.073Z,49.33
2018-11-14T03:56:37.900Z,74.90
2018-11-14T03:59:13.828Z,81.07
2018-11-14T04:01:49.657Z,78.57
2018-11-14T04:04:25.618Z,70.20
2018-11-14T04:07:01.546Z,77.20
2018-11-14T04:09:37.397Z,68.37
2018-11-14T04:12:13.191Z,61.70
2018-11-14T04:14:49.067Z,60.37
2018-11-14T04:17:24.786Z,51.17
2018-11-14T04:20:00.682Z,50.77
2018-11-14T04:22:36.642Z,62.37
2018-11-14T04:25:14.795Z,61.07
2018-11-14T04:27:50.719Z,65.17
2018-11-14T04:30:26.650Z,57.07
2018-11-14T04:33:02.525Z,59.23
2018-11-14T04:35:38.382Z,56.00
2018-11-14T04:38:14.329Z,53.43
2018-11-14T04:40:50.230Z,56.50
2018-11-14T04:43:26.037Z,58.57
2018-11-14T04:46:01.971Z,57.00
2018-11-14T04:48:37.788Z,54.77
2018-11-14T04:51:13.734Z,59.47
2018-11-14T04:53:49.571Z,77.60
2018-11-14T04:56:25.571Z,90.50
2018-11-14T04:59:01.294Z,70.67
2018-11-14T05:01:37.215Z,65.40
2018-11-14T05:04:12.994Z,68.47
2018-11-14T05:06:49.022Z,63.57
2018-11-14T05:09:25.128Z,66.43
2018-11-14T05:12:01.048Z,68.70
2018-11-14T05:14:36.882Z,66.90
2018-11-14T05:17:12.886Z,62.10
2018-11-14T05:19:51.510Z,73.97
2018-11-14T05:22:32.227Z,78.83
2018-11-14T05:25:08.530Z,103.37
2018-11-14T05:27:44.553Z,135.43
2018-11-14T05:30:21.666Z,140.53
2018-11-14T05:32:57.596Z,129.53
2018-11-14T05:35:33.590Z,113.27
2018-11-14T05:38:09.324Z,127.43
2018-11-14T05:40:45.294Z,136.20
2018-11-14T05:43:21.047Z,132.80
2018-11-14T05:45:57.080Z,121.87
2018-11-14T05:48:32.945Z,85.20
2018-11-14T05:51:09.028Z,75.30
2018-11-14T05:53:44.786Z,65.70
2018-11-14T05:56:20.534Z,72.40
2018-11-14T05:58:56.526Z,75.77
2018-11-14T06:01:32.384Z,75.93
2018-11-14T06:04:09.104Z,74.43
2018-11-14T06:06:44.825Z,74.73
2018-11-14T06:09:20.713Z,69.63
2018-11-14T06:11:56.468Z,72.37
2018-11-14T06:14:32.360Z,69.60
2018-11-14T06:17:08.151Z,71.67
2018-11-14T06:19:44.140Z,66.57
2018-11-14T06:22:20.079Z,72.07
2018-11-14T06:24:56.032Z,75.73
2018-11-14T06:27:31.811Z,66.90
2018-11-14T06:30:08.322Z,66.20
2018-11-14T06:32:44.043Z,103.23
2018-11-14T06:35:20.266Z,75.10
2018-11-14T06:37:56.903Z,83.77
2018-11-14T06:40:33.110Z,75.97
2018-11-14T06:43:08.964Z,74.13
2018-11-14T06:45:44.858Z,76.97
2018-11-14T06:48:20.682Z,80.43
2018-11-14T06:50:56.545Z,83.20
2018-11-14T06:53:32.154Z,84.20
2018-11-14T06:56:08.055Z,83.17
2018-11-14T06:58:43.847Z,78.03
2018-11-14T07:01:19.942Z,81.37
2018-11-14T07:03:55.965Z,83.97
2018-11-14T07:06:32.021Z,94.33
2018-11-14T07:09:10.188Z,101.03
2018-11-14T07:11:46.142Z,91.07
2018-11-14T07:14:22.106Z,83.83
2018-11-14T07:16:57.834Z,71.17
2018-11-14T07:19:33.789Z,72.23
2018-11-14T07:22:09.675Z,54.77
2018-11-14T07:24:45.603Z,52.77
2018-11-14T07:27:21.728Z,56.53
2018-11-14T07:29:57.453Z,49.80
2018-11-14T07:32:33.441Z,51.93
2018-11-14T07:35:09.930Z,55.10
2018-11-14T07:37:49.395Z,56.93
2018-11-14T07:40:25.403Z,58.77
2018-11-14T07:43:01.362Z,61.63
2018-11-14T07:45:37.297Z,67.60
2018-11-14T07:48:13.150Z,81.93
2018-11-14T07:50:49.040Z,74.10
2018-11-14T07:53:24.988Z,57.00
2018-11-14T07:56:00.854Z,58.00
2018-11-14T07:58:36.765Z,67.27
2018-11-14T08:01:12.499Z,64.77
2018-11-14T08:03:48.510Z,70.57
2018-11-14T08:06:24.276Z,73.90
2018-11-14T08:09:00.261Z,74.53
2018-11-14T08:11:36.181Z,76.13
2018-11-14T08:14:12.306Z,75.80
2018-11-14T08:16:48.029Z,73.37
2018-11-14T08:19:23.885Z,62.60
2018-11-14T08:21:59.765Z,50.87
2018-11-14T08:24:35.577Z,48.87
2018-11-14T08:27:11.413Z,41.20
2018-11-14T08:29:47.441Z,38.10
2018-11-14T08:32:23.234Z,39.67
2018-11-14T08:34:58.958Z,39.23
2018-11-14T08:37:34.983Z,40.17
2018-11-14T08:40:11.682Z,39.87
2018-11-14T08:42:47.513Z,40.73
2018-11-14T08:45:23.481Z,47.00
2018-11-14T08:47:59.602Z,44.23
2018-11-14T08:50:35.361Z,47.67
2018-11-14T08:53:11.720Z,45.03
2018-11-14T08:55:47.552Z,45.80
2018-11-14T08:58:23.319Z,42.63
2018-11-14T09:00:59.533Z,40.90
2018-11-14T09:03:35.309Z,44.83
2018-11-14T09:06:11.223Z,43.53
2018-11-14T09:08:47.432Z,45.27
2018-11-14T09:11:23.558Z,51.07
2018-11-14T09:13:59.560Z,54.97
2018-11-14T09:16:35.460Z,45.43
2018-11-14T09:19:11.504Z,46.50
2018-11-14T09:21:47.328Z,46.53
2018-11-14T09:24:23.314Z,47.87
2018-11-14T09:26:59.341Z,47.43
2018-11-14T09:29:35.244Z,67.00
2018-11-14T09:32:11.305Z,48.83
2018-11-14T09:34:47.226Z,50.57
2018-11-14T09:37:23.301Z,49.80
2018-11-14T09:39:59.090Z,47.77
2018-11-14T09:42:35.066Z,43.37
2018-11-14T09:45:16.087Z,40.57
2018-11-14T09:47:51.848Z,41.43
2018-11-14T09:50:29.038Z,41.23
2018-11-14T09:53:06.186Z,38.87
2018-11-14T09:55:42.215Z,39.67
2018-11-14T09:58:18.323Z,32.07
2018-11-14T10:00:54.350Z,25.80
2018-11-14T10:03:30.354Z,25.77
2018-11-14T10:06:06.849Z,25.13
2018-11-14T10:08:43.053Z,27.37
2018-11-14T10:11:18.939Z,27.03
2018-11-14T10:13:54.947Z,30.17
2018-11-14T10:16:30.739Z,27.20
2018-11-14T10:19:08.866Z,26.87
2018-11-14T10:21:45.553Z,25.60
2018-11-14T10:24:22.159Z,26.50
2018-11-14T10:26:57.820Z,23.87
2018-11-14T10:29:33.721Z,29.40
2018-11-14T10:32:09.588Z,26.93
2018-11-14T10:34:45.549Z,26.23
2018-11-14T10:37:21.383Z,25.80
2018-11-14T10:39:57.332Z,24.27
2018-11-14T10:42:33.208Z,25.00
2018-11-14T10:45:10.498Z,26.83
2018-11-14T10:47:46.416Z,26.00
2018-11-14T10:50:23.908Z,25.10
2018-11-14T10:52:59.841Z,24.57
2018-11-14T10:55:35.697Z,24.83
2018-11-14T10:58:11.518Z,25.07
2018-11-14T11:00:48.949Z,21.97
2018-11-14T11:03:29.898Z,25.57
2018-11-14T11:08:13.724Z,25.57
2018-11-14T11:10:54.829Z,23.47
2018-11-14T11:13:35.985Z,22.33
2018-11-14T11:16:16.997Z,18.20
2018-11-14T11:18:52.833Z,18.47
2018-11-14T11:21:28.765Z,20.10
2018-11-14T11:24:05.037Z,19.17
2018-11-14T11:26:40.853Z,19.60
2018-11-14T11:29:16.653Z,19.87
2018-11-14T11:31:52.505Z,17.70
2018-11-14T11:34:31.312Z,18.53
2018-11-14T11:37:07.198Z,16.80
2018-11-14T11:39:43.159Z,26.90
2018-11-14T11:42:19.108Z,23.03
2018-11-14T11:44:55.039Z,30.40
2018-11-14T11:47:30.792Z,22.17
2018-11-14T11:50:07.514Z,37.63
2018-11-14T11:52:43.446Z,46.53
2018-11-14T11:55:19.521Z,40.27
2018-11-14T11:57:55.565Z,29.47
2018-11-14T12:00:31.687Z,34.10
2018-11-14T12:03:07.526Z,27.90
2018-11-14T12:05:43.495Z,33.57
2018-11-14T12:08:19.617Z,24.27
2018-11-14T12:10:55.657Z,27.03
2018-11-14T12:13:31.648Z,28.70
2018-11-14T12:16:07.721Z,25.97
2018-11-14T12:18:43.661Z,28.57
2018-11-14T12:21:19.467Z,28.40
2018-11-14T12:23:55.251Z,29.20
2018-11-14T12:26:31.193Z,30.40
2018-11-14T12:29:07.013Z,29.43
2018-11-14T12:31:42.878Z,28.53
2018-11-14T12:34:19.046Z,35.20
2018-11-14T12:36:54.982Z,31.53
2018-11-14T12:39:30.761Z,32.13
2018-11-14T12:42:07.125Z,30.87
2018-11-14T12:44:42.857Z,33.30
2018-11-14T12:47:18.855Z,29.90
2018-11-14T12:49:54.593Z,36.17
2018-11-14T12:52:30.645Z,31.47
2018-11-14T12:55:08.006Z,34.03
2018-11-14T12:57:44.150Z,32.63
2018-11-14T13:00:20.987Z,33.57
2018-11-14T13:02:56.902Z,31.70
2018-11-14T13:05:32.758Z,34.00
2018-11-14T13:08:08.887Z,31.63
2018-11-14T13:10:40.810Z,29.57
2018-11-14T13:13:11.910Z,29.03
2018-11-14T13:15:43.747Z,31.03
2018-11-14T13:19:38.889Z,29.77
2018-11-14T13:22:10.101Z,33.30
2018-11-14T13:24:41.170Z,33.83
2018-11-14T13:27:12.193Z,30.63
2018-11-14T13:29:43.642Z,30.57
2018-11-14T13:32:14.631Z,34.70
2018-11-14T13:34:46.715Z,37.50
2018-11-14T13:37:17.697Z,32.63
2018-11-14T13:39:49.845Z,32.13
2018-11-14T13:42:20.805Z,36.23
2018-11-14T13:44:51.865Z,36.57
2018-11-14T13:47:22.835Z,53.83
2018-11-14T13:49:54.266Z,42.60
2018-11-14T13:52:27.945Z,36.97
2018-11-14T13:54:59.238Z,38.37
2018-11-14T13:57:30.196Z,33.47
2018-11-14T14:00:03.595Z,35.77
2018-11-14T14:02:34.562Z,33.47
2018-11-14T14:05:10.783Z,34.87
2018-11-14T14:07:41.754Z,36.30
2018-11-14T14:10:15.086Z,34.47
2018-11-14T14:12:47.317Z,35.93
2018-11-14T14:15:19.998Z,51.87
2018-11-14T14:17:51.960Z,75.50
2018-11-14T14:20:23.466Z,67.93
2018-11-14T14:22:54.452Z,49.20
2018-11-14T14:25:25.490Z,53.37
2018-11-14T14:27:56.457Z,59.63
2018-11-14T14:30:27.749Z,58.87
2018-11-14T14:32:58.714Z,51.63
2018-11-14T14:35:29.776Z,54.43
2018-11-14T14:38:00.773Z,160.57
2018-11-14T14:40:32.610Z,58.20
2018-11-14T14:43:03.615Z,40.90
2018-11-14T14:45:34.691Z,36.87
2018-11-14T14:48:05.976Z,39.40
2018-11-14T14:50:42.549Z,39.13
2018-11-14T14:53:19.086Z,36.20
2018-11-14T14:55:56.953Z,44.37
2018-11-14T14:58:33.442Z,66.10
2018-11-14T15:01:03.954Z,69.73
2018-11-14T15:03:34.692Z,67.60
2018-11-14T15:06:06.261Z,67.37
2018-11-14T15:08:37.245Z,57.33
2018-11-14T15:11:08.921Z,55.33
2018-11-14T15:13:39.899Z,53.67
2018-11-14T15:16:11.948Z,64.03
2018-11-14T15:18:43.093Z,61.47
2018-11-14T15:21:14.166Z,92.10
2018-11-14T15:23:45.173Z,115.77
2018-11-14T15:26:16.221Z,65.27
2018-11-14T15:28:47.212Z,48.17
2018-11-14T15:31:18.634Z,52.73
2018-11-14T15:33:49.626Z,51.37
2018-11-14T15:36:20.661Z,44.57
2018-11-14T15:38:56.148Z,48.90
2018-11-14T15:41:27.173Z,43.53
2018-11-14T15:43:58.640Z,53.00
2018-11-14T15:46:29.734Z,87.00
2018-11-14T15:49:00.757Z,81.07
2018-11-14T15:51:32.451Z,75.23
2018-11-14T15:54:03.766Z,85.60
2018-11-14T15:56:34.911Z,48.17
2018-11-14T15:59:06.142Z,75.57
2018-11-14T16:01:40.048Z,79.17
2018-11-14T16:04:11.278Z,158.13
2018-11-14T16:06:42.306Z,72.60
2018-11-14T16:09:13.792Z,62.43
2018-11-14T16:11:44.814Z,76.33
2018-11-14T16:14:15.996Z,67.03
2018-11-14T16:16:47.363Z,52.20
2018-11-14T16:19:18.342Z,58.20
2018-11-14T16:21:49.378Z,49.77
2018-11-14T16:24:21.305Z,49.73
2018-11-14T16:26:52.580Z,51.93
2018-11-14T16:29:24.137Z,55.17
2018-11-14T16:31:56.204Z,45.23
2018-11-14T16:34:27.192Z,49.20
2018-11-14T16:36:58.233Z,52.90
2018-11-14T16:39:30.041Z,56.60
2018-11-14T16:42:01.048Z,55.93
2018-11-14T16:44:32.252Z,68.90
2018-11-14T16:47:03.679Z,85.57
2018-11-14T16:49:34.661Z,253.47
2018-11-14T16:52:06.133Z,111.87
2018-11-14T16:54:37.098Z,85.37
2018-11-14T16:57:08.255Z,73.73
2018-11-14T16:59:39.229Z,66.10
2018-11-14T17:02:10.182Z,54.20
2018-11-14T17:04:41.023Z,56.80
2018-11-14T17:07:11.984Z,56.43
2018-11-14T17:09:42.850Z,55.13
2018-11-14T17:12:13.949Z,54.93
2018-11-14T17:14:44.742Z,50.40
2018-11-14T17:17:16.152Z,126.40
2018-11-14T17:19:47.035Z,63.20
2018-11-14T17:22:17.960Z,70.90
2018-11-14T17:24:48.838Z,80.03
2018-11-14T17:27:19.713Z,70.50
2018-11-14T17:29:56.073Z,122.03
2018-11-14T17:32:33.404Z,66.07
2018-11-14T17:35:04.297Z,63.90
2018-11-14T17:37:41.601Z,67.53
2018-11-14T17:40:14.919Z,52.73
2018-11-14T17:42:47.832Z,52.43
2018-11-14T17:45:29.055Z,42.60
2018-11-14T17:48:00.356Z,42.03
2018-11-14T17:53:29.161Z,64.47
2018-11-14T17:56:00.141Z,41.83
2018-11-14T17:58:32.774Z,34.70
2018-11-14T18:01:03.666Z,35.83
2018-11-14T18:03:34.793Z,38.90
2018-11-14T18:06:06.114Z,40.43
2018-11-14T18:08:36.984Z,46.00
2018-11-14T18:11:07.835Z,41.47
2018-11-14T18:13:39.378Z,49.70
2018-11-14T18:16:10.196Z,39.60
2018-11-14T18:18:41.321Z,35.60
2018-11-14T18:21:12.202Z,47.83
2018-11-14T18:23:43.004Z,50.50
2018-11-14T18:26:13.914Z,64.00
2018-11-14T18:28:44.845Z,84.87
2018-11-14T18:31:15.694Z,140.57
2018-11-14T18:33:46.682Z,77.30
2018-11-14T18:36:17.592Z,86.60
2018-11-14T18:38:48.540Z,59.93
2018-11-14T18:41:19.351Z,111.73
2018-11-14T18:43:50.317Z,41.77
2018-11-14T18:46:21.115Z,73.80
2018-11-14T18:48:52.026Z,44.50
2018-11-14T18:51:25.682Z,45.73
2018-11-14T18:53:56.597Z,127.93
2018-11-14T18:56:27.421Z,52.63
2018-11-14T18:58:58.457Z,51.60
2018-11-14T19:01:29.313Z,39.07
2018-11-14T19:04:01.300Z,38.93
2018-11-14T19:06:32.389Z,78.87
2018-11-14T19:09:03.722Z,37.13
2018-11-14T19:11:35.455Z,30.07
2018-11-14T19:14:06.748Z,37.10
2018-11-14T19:16:37.873Z,25.97
2018-11-14T19:19:09.285Z,28.13
2018-11-14T19:21:40.337Z,24.20
2018-11-14T19:24:11.335Z,20.70
2018-11-14T19:26:42.185Z,21.23
2018-11-14T19:29:13.483Z,32.03
2018-11-14T19:31:44.423Z,28.90
2018-11-14T19:34:15.454Z,30.13
2018-11-14T19:36:47.514Z,25.93
2018-11-14T19:39:18.801Z,27.43
2018-11-14T19:41:49.663Z,27.13
2018-11-14T19:44:20.515Z,21.93
2018-11-14T19:46:51.432Z,24.47
2018-11-14T19:49:22.483Z,20.50
2018-11-14T19:51:53.512Z,21.63
2018-11-14T19:54:24.290Z,23.53
2018-11-14T19:56:55.127Z,22.43
2018-11-14T19:59:26.573Z,20.87
2018-11-14T20:01:58.665Z,22.73
2018-11-14T20:04:29.766Z,20.80
2018-11-14T20:07:00.841Z,18.87
2018-11-14T20:09:31.665Z,18.50
2018-11-14T20:12:02.652Z,20.63
2018-11-14T20:14:33.583Z,40.13
2018-11-14T20:17:04.514Z,24.93
2018-11-14T20:19:38.810Z,33.57
2018-11-14T20:22:09.747Z,33.43
2018-11-14T20:24:41.321Z,35.17
2018-11-14T20:27:14.813Z,32.63
2018-11-14T20:29:49.269Z,51.37
2018-11-14T20:32:20.399Z,40.43
2018-11-14T20:34:51.796Z,38.73
2018-11-14T20:37:23.632Z,31.93
2018-11-14T20:39:57.045Z,45.27
2018-11-14T20:42:30.001Z,42.67
2018-11-14T20:45:01.081Z,26.83
2018-11-14T20:47:31.902Z,23.13
2018-11-14T20:50:03.968Z,28.57
2018-11-14T20:52:34.802Z,28.20
2018-11-14T20:55:06.902Z,22.37
2018-11-14T20:57:38.517Z,22.33
2018-11-14T21:00:22.801Z,25.03
2018-11-14T21:02:54.500Z,51.50
2018-11-14T21:05:26.583Z,42.67
2018-11-14T21:07:58.733Z,35.63
2018-11-14T21:10:32.347Z,37.17
2018-11-14T21:13:05.896Z,42.80
2018-11-14T21:15:42.667Z,41.17
2018-11-14T21:18:19.075Z,38.60
2018-11-14T21:20:54.942Z,40.17
2018-11-14T21:23:31.176Z,39.30
2018-11-14T21:26:07.450Z,47.30
2018-11-14T21:28:43.290Z,49.53
2018-11-14T21:31:19.198Z,56.93
2018-11-14T21:33:55.305Z,45.63
2018-11-14T21:36:33.064Z,47.43
2018-11-14T21:39:12.800Z,46.83
2018-11-14T21:41:48.966Z,47.93
2018-11-14T21:44:28.959Z,42.60
2018-11-14T21:47:06.324Z,48.90
2018-11-14T21:49:44.195Z,48.73
2018-11-14T21:52:20.391Z,49.90
2018-11-14T21:54:56.292Z,48.10
2018-11-14T21:57:32.274Z,39.77
2018-11-14T22:00:11.102Z,36.67
2018-11-14T22:02:48.452Z,35.03
2018-11-14T22:05:24.097Z,35.47
2018-11-14T22:08:00.041Z,34.70
2018-11-14T22:10:35.968Z,37.17
2018-11-14T22:13:11.913Z,48.23
2018-11-14T22:15:50.323Z,52.20
2018-11-14T22:18:26.307Z,60.57
2018-11-14T22:21:02.169Z,54.40
2018-11-14T22:23:38.338Z,44.07
2018-11-14T22:26:14.133Z,44.90
2018-11-14T22:28:50.217Z,40.60
2018-11-14T22:31:26.046Z,40.60
2018-11-14T22:34:01.935Z,39.77
2018-11-14T22:36:37.825Z,41.10
2018-11-14T22:39:13.624Z,36.07
2018-11-14T22:41:49.292Z,36.60
2018-11-14T22:44:25.206Z,35.67
2018-11-14T22:47:01.045Z,33.23
2018-11-14T22:49:36.785Z,40.37
2018-11-14T22:52:12.493Z,37.00
2018-11-14T22:54:48.545Z,36.33
2018-11-14T22:57:24.412Z,36.53
2018-11-14T23:00:00.361Z,39.40
2018-11-14T23:02:36.198Z,44.40
2018-11-14T23:05:12.437Z,39.10
2018-11-14T23:07:49.697Z,42.30
2018-11-14T23:10:26.209Z,44.67
2018-11-14T23:13:01.971Z,37.97
2018-11-14T23:15:38.168Z,42.17
2018-11-14T23:18:14.065Z,36.20
2018-11-14T23:20:49.833Z,37.53
2018-11-14T23:23:25.601Z,35.23
2018-11-14T23:26:01.435Z,36.57
2018-11-14T23:28:37.167Z,33.33
2018-11-14T23:31:13.156Z,33.60
2018-11-14T23:33:48.990Z,33.73
2018-11-14T23:36:24.666Z,34.83
2018-11-14T23:39:00.523Z,35.83
2018-11-14T23:41:36.465Z,30.90
2018-11-14T23:44:12.239Z,30.63
2018-11-14T23:46:48.229Z,29.40
2018-11-14T23:49:24.018Z,29.10
2018-11-14T23:51:59.832Z,30.10
2018-11-14T23:54:35.568Z,29.70
2018-11-14T23:57:11.544Z,29.17
2018-11-14T23:59:47.381Z,30.70
